Dades meteomassalio
Diari Summary for Juny 24, 2017 Units:  English    Metric   Both
« Previous Day
Next Day »
Diari Semanal Mensual Anual Personalitzat
  Maxima: Minima: Mijana:
Temperatura: TemperatureC °F 20.6 °F 27.6 °F
Rosada: DewpointC °F 11.7 °F 16.2 °F
Humitat: Humidity % 23 % 52 %
Velocitat del vent: WindSpeedKMH mph 0.0 mph 5.6 mph
Racha vent: WindSpeedGustKMH mph - -
Vent:- - South
Pressio: PressurehPa in 1012.4 in -
Pluja: 0.0 in    
Historical Graphs
 
 
Tabular Data for Juny 24, 2017
Time Temperature Dew Point Pressure Wind Wind Speed Wind Gust Humidity Rainfall Rate (Hourly) solar Conditions
TemperatureC °F DewpointC °F PressurehPa in Calm     Humidity % HourlyPrecipMM in SolarRadiationWatts/m^2 W/m2 Conditions
00:04 28.1 °F 18.7 °F 1016.1 in Calm     57 % 0.0 in 0.0 W/m2 CLR
00:09 27.9 °F 18.6 °F 1016.1 in Calm     57 % 0.0 in 0.0 W/m2 CLR
00:14 27.8 °F 18.5 °F 1016.1 in Calm     57 % 0.0 in 0.0 W/m2 CLR
00:19 27.7 °F 17.5 °F 1016.1 in Calm     54 % 0.0 in 0.0 W/m2 CLR
00:24 27.9 °F 17.1 °F 1016.1 in Calm     52 % 0.0 in 0.0 W/m2 CLR
00:29 28.1 °F 17.6 °F 1016.1 in Calm     53 % 0.0 in 0.0 W/m2 CLR
00:34 28.0 °F 17.5 °F 1016.1 in Calm     53 % 0.0 in 0.0 W/m2 CLR
00:39 27.8 °F 17.4 °F 1016.1 in Calm     53 % 0.0 in 0.0 W/m2 CLR
00:44 27.7 °F 17.3 °F 1016.1 in Calm     53 % 0.0 in 0.0 W/m2 CLR
00:49 27.7 °F 16.9 °F 1016.5 in Calm     52 % 0.0 in 0.0 W/m2 CLR
00:54 27.7 °F 16.9 °F 1016.5 in Calm     52 % 0.0 in 0.0 W/m2 CLR
00:59 27.4 °F 17.3 °F 1016.8 in NW 18.5 mph 18.5 mph 54 % 0.0 in 0.0 W/m2 CLR
01:05 27.2 °F 17.1 °F 1016.8 in NNW 5.6 mph 5.6 mph 54 % 0.0 in 0.0 W/m2 CLR
01:10 27.2 °F 17.6 °F 1016.5 in Calm     56 % 0.0 in 0.0 W/m2 CLR
01:15 26.9 °F 18.0 °F 1016.5 in Calm     58 % 0.0 in 0.0 W/m2 CLR
01:20 26.7 °F 18.1 °F 1016.5 in East 3.7 mph   59 % 0.0 in 0.0 W/m2 CLR
01:25 26.4 °F 17.8 °F 1016.5 in Calm     59 % 0.0 in 0.0 W/m2 CLR
01:30 26.2 °F 18.1 °F 1016.5 in Calm     61 % 0.0 in 0.0 W/m2 CLR
01:35 26.1 °F 18.4 °F 1016.5 in Calm     63 % 0.0 in 0.0 W/m2 CLR
01:40 25.8 °F 18.3 °F 1016.8 in Calm     63 % 0.0 in 0.0 W/m2 CLR
01:45 25.7 °F 18.1 °F 1016.8 in Calm     63 % 0.0 in 0.0 W/m2 CLR
01:50 25.6 °F 18.2 °F 1016.8 in Calm     64 % 0.0 in 0.0 W/m2 CLR
01:55 25.8 °F 18.8 °F 1016.8 in NW 16.7 mph 16.7 mph 65 % 0.0 in 0.0 W/m2 CLR
02:00 26.2 °F 19.1 °F 1016.8 in NW 24.1 mph 24.1 mph 65 % 0.0 in 0.0 W/m2 CLR
02:05 26.2 °F 19.3 °F 1017.2 in NW 27.8 mph 27.8 mph 66 % 0.0 in 0.0 W/m2 CLR
02:10 25.8 °F 18.8 °F 1016.8 in NNW 29.6 mph 29.6 mph 65 % 0.0 in 0.0 W/m2 CLR
02:15 25.7 °F 18.8 °F 1017.2 in WNW 20.4 mph 20.4 mph 66 % 0.0 in 0.0 W/m2 CLR
02:20 25.5 °F 18.4 °F 1017.2 in WSW 13.0 mph 13.0 mph 65 % 0.0 in 0.0 W/m2 CLR
02:25 25.4 °F 18.3 °F 1017.5 in Calm   2.4 mph 65 % 0.0 in 0.0 W/m2 CLR
02:30 25.2 °F 16.4 °F 1017.5 in Calm     58 % 0.0 in 0.0 W/m2 CLR
02:35 25.1 °F 16.0 °F 1017.5 in Calm     57 % 0.0 in 0.0 W/m2 CLR
02:40 24.9 °F 15.8 °F 1017.5 in West 9.3 mph 9.3 mph 57 % 0.0 in 0.0 W/m2 CLR
02:45 24.7 °F 15.6 °F 1017.5 in NW 7.4 mph 7.4 mph 57 % 0.0 in 0.0 W/m2 CLR
02:50 24.4 °F 15.7 °F 1017.5 in WNW 5.6 mph 5.6 mph 58 % 0.0 in 0.0 W/m2 CLR
02:55 24.3 °F 15.6 °F 1017.5 in WNW 7.4 mph 7.4 mph 58 % 0.0 in 0.0 W/m2 CLR
03:00 24.2 °F 15.7 °F 1017.5 in Calm     59 % 0.0 in 0.0 W/m2 CLR
03:05 24.1 °F 15.6 °F 1017.5 in Calm     59 % 0.0 in 0.0 W/m2 CLR
03:10 24.0 °F 15.5 °F 1017.5 in Calm     59 % 0.0 in 0.0 W/m2 CLR
03:15 23.9 °F 15.7 °F 1017.5 in Calm     60 % 0.0 in 0.0 W/m2 CLR
03:20 23.9 °F 15.7 °F 1017.5 in Calm     60 % 0.0 in 0.0 W/m2 CLR
03:25 23.8 °F 15.6 °F 1017.5 in Calm     60 % 0.0 in 0.0 W/m2 CLR
03:30 23.7 °F 15.5 °F 1017.5 in Calm     60 % 0.0 in 0.0 W/m2 CLR
03:35 23.6 °F 15.7 °F 1017.5 in Calm     61 % 0.0 in 0.0 W/m2 CLR
03:40 23.5 °F 15.6 °F 1017.5 in Calm     61 % 0.0 in 0.0 W/m2 CLR
03:45 23.4 °F 15.5 °F 1017.8 in Calm     61 % 0.0 in 0.0 W/m2 CLR
03:50 23.4 °F 15.4 °F 1017.8 in Calm     61 % 0.0 in 0.0 W/m2 CLR
03:55 23.3 °F 15.7 °F 1017.8 in Calm     62 % 0.0 in 0.0 W/m2 CLR
04:00 23.2 °F 15.6 °F 1017.8 in Calm     62 % 0.0 in 0.0 W/m2 CLR
04:05 23.1 °F 15.4 °F 1017.8 in Calm     62 % 0.0 in 0.0 W/m2 CLR
04:10 22.9 °F 15.5 °F 1017.8 in Calm     63 % 0.0 in 0.0 W/m2 CLR
04:15 22.8 °F 15.4 °F 1017.8 in Calm     63 % 0.0 in 0.0 W/m2 CLR
04:17 22.8 °F 15.4 °F 1017.8 in Calm     63 % 0.0 in 0.0 W/m2 CLR
04:22 22.7 °F 15.3 °F 1017.8 in NW 1.6 mph   63 % 0.0 in 0.0 W/m2 CLR
04:27 22.6 °F 15.2 °F 1017.8 in WNW 5.6 mph 5.6 mph 63 % 0.0 in 0.0 W/m2 CLR
04:32 22.6 °F 15.2 °F 1017.8 in WNW 5.6 mph 5.6 mph 63 % 0.0 in 0.0 W/m2 CLR
04:37 22.6 °F 15.4 °F 1017.8 in WNW 12.9 mph 12.9 mph 64 % 0.0 in 0.0 W/m2 CLR
04:42 22.5 °F 15.3 °F 1018.2 in NW 13.0 mph 13.0 mph 64 % 0.0 in 0.0 W/m2 CLR
04:47 22.4 °F 15.2 °F 1018.2 in Calm     64 % 0.0 in 0.0 W/m2 CLR
04:52 22.3 °F 15.2 °F 1018.2 in WNW 5.6 mph   64 % 0.0 in 0.0 W/m2 CLR
04:57 22.2 °F 15.3 °F 1018.2 in NW 11.1 mph 11.1 mph 65 % 0.0 in 0.0 W/m2 CLR
05:02 22.2 °F 15.3 °F 1018.2 in Calm     65 % 0.0 in 0.0 W/m2 CLR
05:07 22.1 °F 15.2 °F 1018.2 in Calm     65 % 0.0 in 0.0 W/m2 CLR
05:12 22.0 °F 15.1 °F 1018.2 in WNW 7.4 mph 7.4 mph 65 % 0.0 in 0.0 W/m2 CLR
05:17 21.9 °F 15.3 °F 1018.2 in NW 9.3 mph 9.3 mph 66 % 0.0 in 0.0 W/m2 CLR
05:22 21.9 °F 15.2 °F 1018.2 in Calm     66 % 0.0 in 0.0 W/m2 CLR
05:27 21.9 °F 15.2 °F 1018.5 in Calm     66 % 0.0 in 0.0 W/m2 CLR
05:32 21.8 °F 15.4 °F 1018.5 in Calm     67 % 0.0 in 0.0 W/m2 CLR
05:37 21.8 °F 15.4 °F 1018.5 in WNW 11.1 mph 11.1 mph 67 % 0.0 in 0.0 W/m2 CLR
05:42 21.7 °F 15.3 °F 1018.5 in West 5.6 mph   67 % 0.0 in 0.0 W/m2 CLR
05:47 21.7 °F 15.3 °F 1018.5 in WSW 5.6 mph 5.6 mph 67 % 0.0 in 0.0 W/m2 CLR
05:52 21.5 °F 15.3 °F 1018.5 in WSW 5.6 mph 5.6 mph 68 % 0.0 in 0.0 W/m2 CLR
05:57 21.4 °F 15.2 °F 1018.5 in West 7.4 mph 7.4 mph 68 % 0.0 in 0.0 W/m2 CLR
06:02 21.3 °F 15.3 °F 1018.2 in WSW 9.3 mph 9.3 mph 69 % 0.0 in 0.0 W/m2 CLR
06:07 21.2 °F 15.3 °F 1018.2 in WSW 6.4 mph 6.4 mph 69 % 0.0 in 0.0 W/m2 CLR
06:12 21.1 °F 15.2 °F 1018.5 in WSW 1.9 mph   69 % 0.0 in 0.0 W/m2 CLR
06:17 21.1 °F 15.2 °F 1018.5 in Calm     69 % 0.0 in 0.0 W/m2 CLR
06:22 20.9 °F 15.1 °F 1018.5 in Calm     69 % 0.0 in 0.0 W/m2 OVC
06:27 20.9 °F 15.2 °F 1018.5 in Calm     70 % 0.0 in 0.0 W/m2 OVC
06:32 20.8 °F 15.2 °F 1018.2 in Calm     70 % 0.0 in 5.0 W/m2 OVC
06:37 20.8 °F 15.1 °F 1018.5 in WSW 5.6 mph 5.6 mph 70 % 0.0 in 7.0 W/m2 BKN
06:42 20.7 °F 15.1 °F 1018.2 in West 5.6 mph 5.6 mph 70 % 0.0 in 11.0 W/m2 BKN
06:47 20.7 °F 15.0 °F 1018.5 in Calm     70 % 0.0 in 14.0 W/m2 BKN
06:52 20.6 °F 14.9 °F 1018.5 in West 9.3 mph 9.3 mph 70 % 0.0 in 18.0 W/m2 BKN
06:57 20.6 °F 15.2 °F 1018.5 in Calm     71 % 0.0 in 21.0 W/m2 BKN
07:02 20.6 °F 15.2 °F 1018.5 in Calm     71 % 0.0 in 25.0 W/m2 BKN
07:03 20.6 °F 15.2 °F 1018.2 in Calm     71 % 0.0 in 25.0 W/m2 BKN
07:08 20.6 °F 15.2 °F 1018.5 in SSW 1.9 mph 1.9 mph 71 % 0.0 in 33.0 W/m2 BKN
07:13 20.6 °F 15.2 °F 1018.5 in Calm     71 % 0.0 in 40.0 W/m2 BKN
07:18 20.6 °F 15.1 °F 1018.5 in WSW 5.6 mph 5.6 mph 71 % 0.0 in 49.0 W/m2 SCT
07:23 20.6 °F 15.1 °F 1018.5 in WSW 5.6 mph 5.6 mph 71 % 0.0 in 58.0 W/m2 SCT
07:28 20.6 °F 15.2 °F 1018.5 in Calm     71 % 0.0 in 70.0 W/m2 FEW
07:33 20.7 °F 15.3 °F 1018.5 in Calm     71 % 0.0 in 81.0 W/m2 FEW
07:38 20.8 °F 15.4 °F 1018.5 in Calm     71 % 0.0 in 95.0 W/m2 FEW
07:43 20.9 °F 15.2 °F 1018.5 in Calm     70 % 0.0 in 109.0 W/m2 CLR
07:48 21.0 °F 15.3 °F 1018.5 in Calm     70 % 0.0 in 127.0 W/m2 CLR
07:53 21.1 °F 15.2 °F 1018.5 in Calm     69 % 0.0 in 141.0 W/m2 CLR
07:58 21.2 °F 15.3 °F 1018.5 in Calm   0.6 mph 69 % 0.0 in 155.0 W/m2 CLR
08:03 21.3 °F 15.4 °F 1018.5 in WSW 1.9 mph   69 % 0.0 in 171.0 W/m2 CLR
08:08 21.6 °F 15.4 °F 1018.5 in NNW 9.3 mph 9.3 mph 68 % 0.0 in 190.0 W/m2 CLR
08:13 21.6 °F 15.2 °F 1018.5 in WNW 11.1 mph 11.1 mph 67 % 0.0 in 204.0 W/m2 CLR
08:18 21.7 °F 15.3 °F 1018.5 in North 13.0 mph 13.0 mph 67 % 0.0 in 220.0 W/m2 CLR
08:23 21.7 °F 15.3 °F 1018.5 in NW 13.0 mph 13.0 mph 67 % 0.0 in 234.0 W/m2 CLR
08:28 21.8 °F 15.2 °F 1018.5 in NNW 13.0 mph 13.0 mph 66 % 0.0 in 251.0 W/m2 CLR
08:33 21.9 °F 15.2 °F 1018.5 in NW 9.3 mph 9.3 mph 66 % 0.0 in 264.0 W/m2 CLR
08:38 22.1 °F 15.4 °F 1018.5 in NW 11.1 mph 11.1 mph 66 % 0.0 in 281.0 W/m2 CLR
08:43 22.1 °F 15.2 °F 1018.5 in NNW 13.0 mph 13.0 mph 65 % 0.0 in 294.0 W/m2 CLR
08:48 22.2 °F 15.3 °F 1018.8 in NW 11.3 mph 11.3 mph 65 % 0.0 in 308.0 W/m2 CLR
08:54 22.2 °F 15.3 °F 1018.5 in WNW 13.0 mph 13.0 mph 65 % 0.0 in 325.0 W/m2 CLR
08:59 22.3 °F 15.4 °F 1018.5 in WNW 13.0 mph 13.0 mph 65 % 0.0 in 339.0 W/m2 CLR
09:04 22.3 °F 15.4 °F 1018.5 in NW 11.1 mph 11.1 mph 65 % 0.0 in 353.0 W/m2 CLR
09:09 22.4 °F 15.2 °F 1018.5 in NW 11.1 mph 11.1 mph 64 % 0.0 in 369.0 W/m2 CLR
09:14 22.6 °F 15.4 °F 1018.5 in WNW 7.4 mph 7.4 mph 64 % 0.0 in 387.0 W/m2 CLR
09:19 22.7 °F 15.6 °F 1018.5 in Calm     64 % 0.0 in 403.0 W/m2 CLR
09:24 22.9 °F 15.3 °F 1018.5 in West 8.0 mph 8.0 mph 62 % 0.0 in 415.0 W/m2 CLR
09:29 22.9 °F 15.5 °F 1018.2 in Calm     63 % 0.0 in 429.0 W/m2 CLR
09:34 23.3 °F 15.4 °F 1018.2 in WNW 9.3 mph 9.3 mph 61 % 0.0 in 446.0 W/m2 CLR
09:39 23.6 °F 15.6 °F 1018.2 in NW 9.3 mph 9.3 mph 61 % 0.0 in 462.0 W/m2 CLR
09:44 23.6 °F 15.7 °F 1018.2 in NW 9.7 mph 9.7 mph 61 % 0.0 in 476.0 W/m2 CLR
09:49 23.7 °F 15.5 °F 1018.2 in WNW 7.4 mph 7.4 mph 60 % 0.0 in 489.0 W/m2 CLR
09:54 23.9 °F 15.7 °F 1018.2 in NW 8.0 mph 8.0 mph 60 % 0.0 in 503.0 W/m2 CLR
09:59 24.1 °F 15.8 °F 1018.2 in West 3.2 mph 3.2 mph 60 % 0.0 in 519.0 W/m2 CLR
10:04 24.2 °F 15.7 °F 1018.2 in Calm     59 % 0.0 in 533.0 W/m2 CLR
10:09 24.5 °F 15.9 °F 1018.2 in Calm     59 % 0.0 in 547.0 W/m2 CLR
10:14 24.8 °F 16.0 °F 1017.8 in NW 9.7 mph 9.7 mph 58 % 0.0 in 561.0 W/m2 CLR
10:15 24.8 °F 15.7 °F 1017.8 in NNW 9.3 mph 9.3 mph 57 % 0.0 in 561.0 W/m2 CLR
10:20 24.8 °F 15.7 °F 1017.8 in NW 9.3 mph 9.3 mph 57 % 0.0 in 575.0 W/m2 CLR
10:25 24.8 °F 15.7 °F 1017.8 in Calm     57 % 0.0 in 587.0 W/m2 CLR
10:30 24.9 °F 15.8 °F 1017.8 in Calm     57 % 0.0 in 599.0 W/m2 CLR
10:35 25.3 °F 15.9 °F 1017.8 in North 7.4 mph 7.4 mph 56 % 0.0 in 615.0 W/m2 CLR
10:40 25.6 °F 15.9 °F 1017.8 in NE 14.8 mph 14.8 mph 55 % 0.0 in 628.0 W/m2 CLR
10:45 25.6 °F 15.9 °F 1017.8 in NNW 9.3 mph 9.3 mph 55 % 0.0 in 638.0 W/m2 CLR
10:50 25.7 °F 16.2 °F 1017.8 in Calm     56 % 0.0 in 647.0 W/m2 CLR
10:55 26.0 °F 15.9 °F 1017.8 in NW 3.7 mph 3.7 mph 54 % 0.0 in 663.0 W/m2 CLR
11:00 26.2 °F 16.1 °F 1017.8 in North 11.3 mph 11.3 mph 54 % 0.0 in 675.0 W/m2 CLR
11:05 26.2 °F 16.2 °F 1017.8 in North 8.0 mph 8.0 mph 54 % 0.0 in 687.0 W/m2 CLR
11:10 26.2 °F 16.2 °F 1017.8 in NE 1.6 mph   54 % 0.0 in 700.0 W/m2 CLR
11:15 26.5 °F 16.2 °F 1017.8 in NNE 5.6 mph 5.6 mph 53 % 0.0 in 712.0 W/m2 CLR
11:20 26.6 °F 16.2 °F 1017.8 in North 5.6 mph 5.6 mph 53 % 0.0 in 729.0 W/m2 CLR
11:25 26.8 °F 16.2 °F 1018.2 in ENE 9.3 mph 9.3 mph 52 % 0.0 in 749.0 W/m2 CLR
11:30 26.8 °F 15.8 °F 1017.8 in Calm     51 % 0.0 in 754.0 W/m2 CLR
11:35 26.9 °F 15.9 °F 1017.8 in North 13.0 mph 13.0 mph 51 % 0.0 in 763.0 W/m2 CLR
11:40 26.9 °F 15.9 °F 1017.8 in ENE 9.7 mph 9.7 mph 51 % 0.0 in 773.0 W/m2 CLR
11:45 27.0 °F 16.3 °F 1017.8 in Calm     52 % 0.0 in 784.0 W/m2 CLR
11:50 27.4 °F 16.1 °F 1017.8 in North 9.7 mph 9.7 mph 50 % 0.0 in 789.0 W/m2 CLR
11:55 27.4 °F 16.1 °F 1017.8 in ENE 5.6 mph 5.6 mph 50 % 0.0 in 800.0 W/m2 CLR
12:00 27.6 °F 16.2 °F 1017.8 in North 9.3 mph 9.3 mph 50 % 0.0 in 810.0 W/m2 CLR
12:05 27.9 °F 16.2 °F 1017.8 in East 5.6 mph 5.6 mph 49 % 0.0 in 826.0 W/m2 CLR
12:10 28.0 °F 15.9 °F 1017.8 in ENE 5.6 mph 5.6 mph 48 % 0.0 in 831.0 W/m2 CLR
12:15 27.9 °F 15.9 °F 1017.8 in Calm     48 % 0.0 in 838.0 W/m2 CLR
12:20 28.1 °F 16.4 °F 1017.5 in Calm     49 % 0.0 in 849.0 W/m2 CLR
12:25 28.4 °F 16.4 °F 1017.5 in NE 7.4 mph   48 % 0.0 in 860.0 W/m2 CLR
12:30 28.5 °F 16.4 °F 1017.5 in NNE 6.4 mph 6.4 mph 48 % 0.0 in 860.0 W/m2 CLR
12:35 28.7 °F 16.3 °F 1017.2 in Calm     47 % 0.0 in 868.0 W/m2 CLR
12:40 28.9 °F 16.2 °F 1017.2 in SSE 3.7 mph 3.7 mph 46 % 0.0 in 870.0 W/m2 CLR
12:45 28.9 °F 16.2 °F 1017.2 in East 3.7 mph 3.7 mph 46 % 0.0 in 877.0 W/m2 CLR
12:50 28.9 °F 16.2 °F 1017.2 in ENE 1.9 mph   46 % 0.0 in 884.0 W/m2 CLR
12:55 29.2 °F 16.1 °F 1016.8 in ENE 7.4 mph 7.4 mph 45 % 0.0 in 882.0 W/m2 CLR
13:00 29.3 °F 16.2 °F 1016.8 in SE 7.4 mph 7.4 mph 45 % 0.0 in 886.0 W/m2 CLR
13:05 29.7 °F 16.2 °F 1016.8 in NNE 11.1 mph 11.1 mph 44 % 0.0 in 896.0 W/m2 CLR
13:07 29.8 °F 16.3 °F 1016.8 in Calm     44 % 0.0 in 898.0 W/m2 CLR
13:12 30.1 °F 16.1 °F 1016.8 in NNE 1.9 mph 1.9 mph 43 % 0.0 in 898.0 W/m2 CLR
13:17 30.3 °F 16.0 °F 1016.8 in NW 7.4 mph 7.4 mph 42 % 0.0 in 907.0 W/m2 CLR
13:22 30.4 °F 16.1 °F 1016.8 in Calm     42 % 0.0 in 905.0 W/m2 CLR
13:27 30.8 °F 16.1 °F 1016.5 in ENE 5.6 mph 5.6 mph 41 % 0.0 in 912.0 W/m2 CLR
13:32 30.9 °F 16.1 °F 1016.5 in ENE 3.7 mph 3.7 mph 41 % 0.0 in 919.0 W/m2 CLR
13:37 30.9 °F 15.8 °F 1016.1 in NE 7.4 mph 7.4 mph 40 % 0.0 in 914.0 W/m2 CLR
13:42 31.3 °F 16.1 °F 1016.1 in ENE 9.3 mph 9.3 mph 40 % 0.0 in 919.0 W/m2 CLR
13:47 31.7 °F 16.4 °F 1016.1 in Calm     40 % 0.0 in 923.0 W/m2 CLR
13:52 31.8 °F 16.2 °F 1015.8 in NNE 7.4 mph 7.4 mph 39 % 0.0 in 923.0 W/m2 CLR
13:57 32.1 °F 16.4 °F 1015.8 in ENE 8.0 mph 8.0 mph 39 % 0.0 in 919.0 W/m2 CLR
14:02 32.2 °F 16.1 °F 1015.8 in NE 5.6 mph 5.6 mph 38 % 0.0 in 851.0 W/m2 CLR
14:07 32.2 °F 15.7 °F 1015.8 in Calm     37 % 0.0 in 559.0 W/m2 CLR
14:12 32.2 °F 16.1 °F 1015.8 in ENE 11.1 mph 11.1 mph 38 % 0.0 in 997.0 W/m2 CLR
14:17 32.3 °F 15.8 °F 1015.5 in NE 11.1 mph 11.1 mph 37 % 0.0 in 744.0 W/m2 CLR
14:22 32.1 °F 15.1 °F 1015.8 in NNE 14.8 mph 14.8 mph 36 % 0.0 in 376.0 W/m2 CLR
14:27 31.9 °F 14.9 °F 1015.8 in Calm     36 % 0.0 in 983.0 W/m2 CLR
14:32 32.2 °F 15.3 °F 1015.8 in North 13.0 mph 13.0 mph 36 % 0.0 in 933.0 W/m2 CLR
14:37 32.3 °F 15.3 °F 1015.5 in ENE 8.0 mph 8.0 mph 36 % 0.0 in 868.0 W/m2 CLR
14:42 32.7 °F 15.2 °F 1015.5 in NE 7.4 mph   35 % 0.0 in 828.0 W/m2 CLR
14:47 32.8 °F 15.3 °F 1015.5 in ENE 13.0 mph 13.0 mph 35 % 0.0 in 445.0 W/m2 CLR
14:52 32.9 °F 14.9 °F 1015.5 in North 11.1 mph 11.1 mph 34 % 0.0 in 675.0 W/m2 CLR
14:57 32.7 °F 14.8 °F 1015.5 in North 13.0 mph 13.0 mph 34 % 0.0 in 677.0 W/m2 CLR
15:02 32.6 °F 14.7 °F 1015.1 in ENE 6.4 mph 6.4 mph 34 % 0.0 in 594.0 W/m2 CLR
15:07 32.8 °F 14.4 °F 1015.1 in North 11.1 mph 11.1 mph 33 % 0.0 in 928.0 W/m2 CLR
15:12 33.1 °F 14.7 °F 1015.1 in NE 5.6 mph 5.6 mph 33 % 0.0 in 863.0 W/m2 CLR
15:17 33.3 °F 14.4 °F 1015.1 in NNE 1.6 mph 1.6 mph 32 % 0.0 in 833.0 W/m2 CLR
15:22 33.6 °F 14.2 °F 1015.1 in Calm     31 % 0.0 in 867.0 W/m2 CLR
15:23 33.6 °F 14.2 °F 1015.1 in Calm     31 % 0.0 in 895.0 W/m2 CLR
15:28 34.1 °F 14.6 °F 1015.1 in NNE 7.4 mph 7.4 mph 31 % 0.0 in 879.0 W/m2 CLR
15:33 34.3 °F 14.2 °F 1014.8 in NE 13.0 mph 13.0 mph 30 % 0.0 in 872.0 W/m2 CLR
15:38 34.3 °F 13.7 °F 1014.8 in NE 16.7 mph 16.7 mph 29 % 0.0 in 854.0 W/m2 CLR
15:43 34.3 °F 13.7 °F 1014.8 in NE 9.3 mph 9.3 mph 29 % 0.0 in 895.0 W/m2 CLR
15:48 34.4 °F 12.7 °F 1014.8 in ENE 9.3 mph 9.3 mph 27 % 0.0 in 671.0 W/m2 CLR
15:53 34.4 °F 13.3 °F 1014.4 in NNE 13.0 mph 13.0 mph 28 % 0.0 in 780.0 W/m2 CLR
15:58 34.3 °F 12.7 °F 1014.4 in North 9.3 mph 9.3 mph 27 % 0.0 in 844.0 W/m2 CLR
16:03 34.4 °F 13.3 °F 1014.4 in NE 9.7 mph 9.7 mph 28 % 0.0 in 580.0 W/m2 CLR
16:08 34.7 °F 13.5 °F 1014.4 in NNE 9.7 mph 9.7 mph 28 % 0.0 in 482.0 W/m2 CLR
16:13 34.7 °F 13.6 °F 1014.1 in NNW 9.3 mph 9.3 mph 28 % 0.0 in 374.0 W/m2 CLR
16:18 34.6 °F 13.4 °F 1014.4 in NE 11.1 mph 11.1 mph 28 % 0.0 in 503.0 W/m2 CLR
16:23 34.7 °F 12.9 °F 1014.1 in NNW 13.0 mph 13.0 mph 27 % 0.0 in 796.0 W/m2 CLR
16:28 34.8 °F 13.1 °F 1014.1 in Calm     27 % 0.0 in 589.0 W/m2 CLR
16:33 34.9 °F 11.9 °F 1014.1 in North 9.3 mph 9.3 mph 25 % 0.0 in 281.0 W/m2 CLR
16:38 34.8 °F 11.8 °F 1014.1 in NE 9.7 mph 13.0 mph 25 % 0.0 in 480.0 W/m2 CLR
16:43 34.8 °F 12.5 °F 1014.1 in NNW 8.0 mph 8.0 mph 26 % 0.0 in 854.0 W/m2 CLR
16:48 35.2 °F 12.2 °F 1013.8 in NNW 9.3 mph 9.3 mph 25 % 0.0 in 805.0 W/m2 CLR
16:53 35.8 °F 12.7 °F 1013.8 in NE 3.2 mph 3.2 mph 25 % 0.0 in 707.0 W/m2 CLR
16:58 36.1 °F 12.3 °F 1013.8 in North 7.4 mph 7.4 mph 24 % 0.0 in 782.0 W/m2 CLR
17:03 36.1 °F 11.7 °F 1013.8 in NNW 7.4 mph 7.4 mph 23 % 0.0 in 731.0 W/m2 CLR
17:08 36.1 °F 12.9 °F 1013.8 in ENE 9.7 mph 9.7 mph 25 % 0.0 in 705.0 W/m2 CLR
17:13 35.7 °F 12.0 °F 1013.8 in NE 4.8 mph 5.3 mph 24 % 0.0 in 749.0 W/m2 CLR
17:18 35.8 °F 12.1 °F 1013.8 in NE 11.1 mph 11.1 mph 24 % 0.0 in 773.0 W/m2 CLR
17:23 35.9 °F 12.8 °F 1013.4 in NNE 5.6 mph 5.6 mph 25 % 0.0 in 694.0 W/m2 CLR
17:28 35.9 °F 12.2 °F 1013.4 in NNW 7.4 mph 7.4 mph 24 % 0.0 in 659.0 W/m2 CLR
17:33 35.9 °F 12.8 °F 1013.4 in WNW 3.2 mph 3.2 mph 25 % 0.0 in 322.0 W/m2 CLR
17:38 36.0 °F 13.5 °F 1013.4 in Calm     26 % 0.0 in 647.0 W/m2 CLR
17:43 35.6 °F 15.9 °F 1013.4 in East 18.5 mph 18.5 mph 31 % 0.0 in 626.0 W/m2 CLR
17:44 35.4 °F 16.2 °F 1013.1 in East 11.1 mph 11.1 mph 32 % 0.0 in 591.0 W/m2 CLR
17:49 34.9 °F 15.8 °F 1013.4 in Calm     32 % 0.0 in 575.0 W/m2 CLR
17:54 35.2 °F 16.0 °F 1013.1 in Calm     32 % 0.0 in 555.0 W/m2 CLR
17:59 35.4 °F 15.7 °F 1013.1 in ENE 3.7 mph 3.7 mph 31 % 0.0 in 543.0 W/m2 CLR
18:04 35.3 °F 16.1 °F 1013.1 in ESE 9.3 mph 9.3 mph 32 % 0.0 in 529.0 W/m2 CLR
18:09 35.1 °F 16.4 °F 1013.1 in East 11.1 mph 11.1 mph 33 % 0.0 in 485.0 W/m2 CLR
18:14 34.9 °F 16.2 °F 1012.8 in ENE 13.0 mph 13.0 mph 33 % 0.0 in 489.0 W/m2 CLR
18:19 34.8 °F 16.6 °F 1013.1 in East 6.4 mph 6.4 mph 34 % 0.0 in 475.0 W/m2 CLR
18:24 34.9 °F 16.7 °F 1012.8 in ENE 4.8 mph 4.8 mph 34 % 0.0 in 459.0 W/m2 CLR
18:29 34.9 °F 16.7 °F 1012.8 in Calm     34 % 0.0 in 445.0 W/m2 CLR
18:34 35.1 °F 16.4 °F 1012.8 in Calm     33 % 0.0 in 427.0 W/m2 CLR
18:39 35.1 °F 15.9 °F 1012.8 in ENE 7.4 mph 7.4 mph 32 % 0.0 in 415.0 W/m2 CLR
18:44 34.7 °F 17.9 °F 1012.4 in ESE 18.5 mph 18.5 mph 37 % 0.0 in 399.0 W/m2 CLR
18:46 34.6 °F 17.7 °F 1012.8 in SE 19.3 mph 19.3 mph 37 % 0.0 in 392.0 W/m2 CLR
18:51 34.3 °F 17.9 °F 1012.4 in ESE 13.0 mph 13.0 mph 38 % 0.0 in 371.0 W/m2 CLR
18:56 34.2 °F 17.4 °F 1012.4 in ESE 16.7 mph 16.7 mph 37 % 0.0 in 362.0 W/m2 CLR
19:01 34.1 °F 17.8 °F 1012.4 in East 11.3 mph 11.3 mph 38 % 0.0 in 345.0 W/m2 CLR
19:06 34.0 °F 17.3 °F 1012.4 in SE 16.7 mph 16.7 mph 37 % 0.0 in 329.0 W/m2 CLR
19:11 33.7 °F 17.4 °F 1012.4 in ESE 14.8 mph 14.8 mph 38 % 0.0 in 316.0 W/m2 CLR
19:16 33.4 °F 17.2 °F 1012.4 in ESE 18.5 mph 18.5 mph 38 % 0.0 in 301.0 W/m2 CLR
19:21 33.2 °F 16.9 °F 1012.4 in ESE 18.5 mph 18.5 mph 38 % 0.0 in 287.0 W/m2 CLR
19:26 33.0 °F 16.8 °F 1012.4 in ESE 18.5 mph 18.5 mph 38 % 0.0 in 274.0 W/m2 CLR
19:31 32.9 °F 16.3 °F 1012.4 in ESE 16.7 mph 16.7 mph 37 % 0.0 in 260.0 W/m2 CLR
19:36 33.0 °F 15.9 °F 1012.4 in ESE 13.0 mph 13.0 mph 36 % 0.0 in 244.0 W/m2 CLR
19:41 33.0 °F 15.5 °F 1012.4 in ESE 18.5 mph 18.5 mph 35 % 0.0 in 230.0 W/m2 CLR
19:46 32.9 °F 15.9 °F 1012.4 in East 14.8 mph 14.8 mph 36 % 0.0 in 213.0 W/m2 CLR
19:51 32.8 °F 16.2 °F 1012.4 in East 18.5 mph 18.5 mph 37 % 0.0 in 199.0 W/m2 CLR
19:56 32.5 °F 16.3 °F 1012.4 in ESE 16.7 mph 16.7 mph 38 % 0.0 in 183.0 W/m2 CLR
20:01 32.2 °F 17.3 °F 1012.4 in ESE 11.3 mph 11.3 mph 41 % 0.0 in 165.0 W/m2 CLR
20:06 32.1 °F 17.6 °F 1012.4 in SE 7.4 mph   42 % 0.0 in 151.0 W/m2 CLR
20:08 32.0 °F 17.8 °F 1012.4 in East 7.4 mph 7.4 mph 43 % 0.0 in 144.0 W/m2 CLR
20:13 31.8 °F 18.0 °F 1012.4 in ESE 11.3 mph 11.3 mph 44 % 0.0 in 130.0 W/m2 CLR
20:18 31.6 °F 18.6 °F 1012.4 in ESE 11.1 mph 11.1 mph 46 % 0.0 in 116.0 W/m2 CLR
20:23 31.3 °F 18.3 °F 1012.8 in SE 9.3 mph 9.3 mph 46 % 0.0 in 104.0 W/m2 CLR
20:28 31.2 °F 18.2 °F 1012.8 in ESE 7.4 mph 7.4 mph 46 % 0.0 in 90.0 W/m2 CLR
20:33 31.2 °F 18.5 °F 1012.8 in Calm     47 % 0.0 in 77.0 W/m2 CLR
20:38 31.1 °F 18.4 °F 1012.8 in Calm     47 % 0.0 in 67.0 W/m2 FEW
20:43 31.1 °F 18.4 °F 1012.8 in Calm     47 % 0.0 in 58.0 W/m2 SCT
20:48 31.1 °F 18.4 °F 1012.8 in Calm     47 % 0.0 in 42.0 W/m2 BKN
20:53 30.9 °F 18.7 °F 1012.8 in ENE 1.6 mph   48 % 0.0 in 40.0 W/m2 BKN
20:58 30.7 °F 18.8 °F 1012.8 in ENE 13.0 mph 13.0 mph 49 % 0.0 in 33.0 W/m2 BKN
21:03 30.4 °F 18.8 °F 1012.8 in ENE 3.7 mph   50 % 0.0 in 28.0 W/m2 BKN
21:08 30.3 °F 19.0 °F 1012.8 in Calm     51 % 0.0 in 23.0 W/m2 BKN
21:13 30.1 °F 19.1 °F 1013.1 in ENE 5.6 mph 5.6 mph 52 % 0.0 in 18.0 W/m2 BKN
21:18 29.8 °F 18.9 °F 1013.1 in Calm     52 % 0.0 in 14.0 W/m2 BKN
21:23 29.6 °F 18.9 °F 1013.1 in Calm     53 % 0.0 in 9.0 W/m2 BKN
21:28 29.4 °F 19.1 °F 1013.1 in Calm     54 % 0.0 in 5.0 W/m2 OVC
21:33 29.3 °F 19.3 °F 1013.1 in Calm   0.2 mph 55 % 0.0 in 0.0 W/m2 OVC
21:38 29.0 °F 19.3 °F 1013.1 in East 3.7 mph   56 % 0.0 in 0.0 W/m2 OVC
21:43 28.8 °F 19.4 °F 1013.1 in Calm     57 % 0.0 in 0.0 W/m2 OVC
21:48 28.6 °F 19.3 °F 1013.4 in Calm     57 % 0.0 in 0.0 W/m2 CLR
21:49 28.6 °F 19.3 °F 1013.4 in Calm     57 % 0.0 in 0.0 W/m2 CLR
21:54 28.4 °F 19.3 °F 1013.4 in ENE 5.6 mph 5.6 mph 58 % 0.0 in 0.0 W/m2 CLR
21:59 28.2 °F 19.4 °F 1013.4 in Calm     59 % 0.0 in 0.0 W/m2 CLR
22:00 28.2 °F 19.4 °F 1013.4 in Calm     59 % 0.0 in 0.0 W/m2 CLR
22:05 28.0 °F 19.2 °F 1013.4 in Calm     59 % 0.0 in 0.0 W/m2 CLR
22:10 27.9 °F 19.4 °F 1013.8 in Calm     60 % 0.0 in 0.0 W/m2 CLR
22:15 27.8 °F 19.6 °F 1013.8 in Calm     61 % 0.0 in 0.0 W/m2 CLR
22:20 27.7 °F 19.4 °F 1013.8 in Calm     61 % 0.0 in 0.0 W/m2 CLR
22:25 27.6 °F 19.6 °F 1014.1 in Calm     62 % 0.0 in 0.0 W/m2 CLR
22:30 27.5 °F 19.6 °F 1014.1 in Calm     62 % 0.0 in 0.0 W/m2 CLR
22:35 27.4 °F 19.4 °F 1014.1 in Calm     62 % 0.0 in 0.0 W/m2 CLR
22:40 27.3 °F 19.7 °F 1014.1 in Calm     63 % 0.0 in 0.0 W/m2 CLR
22:45 27.2 °F 19.5 °F 1014.4 in Calm     63 % 0.0 in 0.0 W/m2 CLR
22:50 27.1 °F 19.4 °F 1014.4 in Calm     63 % 0.0 in 0.0 W/m2 CLR
22:55 26.9 °F 19.3 °F 1014.4 in Calm     63 % 0.0 in 0.0 W/m2 CLR
23:00 26.6 °F 19.2 °F 1014.8 in WNW 11.1 mph 11.1 mph 64 % 0.0 in 0.0 W/m2 CLR
23:05 26.5 °F 19.4 °F 1014.8 in Calm     65 % 0.0 in 0.0 W/m2 CLR
23:10 26.4 °F 19.3 °F 1014.8 in Calm     65 % 0.0 in 0.0 W/m2 CLR
23:15 26.5 °F 19.1 °F 1014.8 in Calm     64 % 0.0 in 0.0 W/m2 CLR
23:20 26.4 °F 19.3 °F 1014.8 in Calm     65 % 0.0 in 0.0 W/m2 CLR
23:25 26.3 °F 19.2 °F 1015.1 in Calm     65 % 0.0 in 0.0 W/m2 CLR
23:30 26.2 °F 19.1 °F 1015.1 in Calm     65 % 0.0 in 0.0 W/m2 CLR
23:35 26.2 °F 19.1 °F 1015.1 in Calm     65 % 0.0 in 0.0 W/m2 CLR
23:40 26.2 °F 19.1 °F 1015.1 in Calm     65 % 0.0 in 0.0 W/m2 CLR
23:45 26.2 °F 19.1 °F 1015.1 in Calm     65 % 0.0 in 0.0 W/m2 CLR
23:50 26.2 °F 18.8 °F 1015.1 in Calm     64 % 0.0 in 0.0 W/m2 CLR
23:55 26.2 °F 18.4 °F 1015.1 in Calm     62 % 0.0 in 0.0 W/m2 CLR
Lo Temps de Massalio
Compliments of Weather Underground - 1.25 mb